createdAt,value
2022-08-30T00:00:27.370Z,23
2022-08-30T00:05:39.700Z,23
2022-08-30T00:10:51.856Z,22
2022-08-30T00:16:04.227Z,22
2022-08-30T00:21:16.716Z,22
2022-08-30T00:26:29.040Z,22
2022-08-30T00:31:41.301Z,22
2022-08-30T00:36:53.592Z,22
2022-08-30T00:42:05.663Z,22
2022-08-30T00:47:17.923Z,22
2022-08-30T00:52:30.267Z,22
2022-08-30T00:57:42.495Z,22
2022-08-30T01:02:55.057Z,22
2022-08-30T01:08:07.168Z,22
2022-08-30T01:13:19.307Z,22
2022-08-30T01:18:33.334Z,21
2022-08-30T01:23:47.688Z,22
2022-08-30T01:28:59.714Z,21
2022-08-30T01:34:11.857Z,21
2022-08-30T01:39:24.019Z,21
2022-08-30T01:44:36.245Z,21
2022-08-30T01:49:48.253Z,21
2022-08-30T01:55:00.522Z,21
2022-08-30T02:00:12.634Z,21
2022-08-30T02:05:24.853Z,21
2022-08-30T02:10:36.803Z,21
2022-08-30T02:15:49.012Z,21
2022-08-30T02:21:01.231Z,21
2022-08-30T02:26:13.348Z,21
2022-08-30T02:31:25.383Z,21
2022-08-30T02:36:37.453Z,21
2022-08-30T02:41:49.483Z,21
2022-08-30T02:47:01.602Z,21
2022-08-30T02:52:13.662Z,21
2022-08-30T02:57:25.591Z,21
2022-08-30T03:02:37.823Z,21
2022-08-30T03:07:49.602Z,21
2022-08-30T03:13:01.682Z,21
2022-08-30T03:18:13.803Z,21
2022-08-30T03:23:25.744Z,21
2022-08-30T03:28:37.718Z,20
2022-08-30T03:33:50.031Z,21
2022-08-30T03:39:02.025Z,20
2022-08-30T03:44:15.644Z,21
2022-08-30T03:49:27.292Z,21
2022-08-30T03:54:49.707Z,21
2022-08-30T04:00:01.255Z,21
2022-08-30T04:05:18.882Z,21
2022-08-30T04:10:31.053Z,21
2022-08-30T04:15:43.191Z,21
2022-08-30T04:20:55.184Z,20
2022-08-30T04:26:07.312Z,21
2022-08-30T04:31:19.591Z,21
2022-08-30T04:36:31.802Z,21
2022-08-30T04:41:43.985Z,21
2022-08-30T04:46:56.124Z,20
2022-08-30T04:52:08.252Z,21
2022-08-30T04:57:20.334Z,21
2022-08-30T05:02:32.612Z,21
2022-08-30T05:07:44.777Z,21
2022-08-30T05:12:56.917Z,21
2022-08-30T05:18:14.493Z,21
2022-08-30T05:23:27.311Z,21
2022-08-30T05:28:39.412Z,21
2022-08-30T05:33:51.643Z,21
2022-08-30T05:39:06.288Z,21
2022-08-30T05:44:26.233Z,21
2022-08-30T05:49:41.699Z,21
2022-08-30T05:54:53.989Z,22
2022-08-30T06:00:06.437Z,22
2022-08-30T06:05:19.057Z,22
2022-08-30T06:10:31.242Z,22
2022-08-30T06:15:43.592Z,22
2022-08-30T06:20:55.828Z,22
2022-08-30T06:26:08.059Z,23
2022-08-30T06:31:20.503Z,23
2022-08-30T06:36:32.712Z,23
2022-08-30T06:41:44.996Z,23
2022-08-30T06:46:57.225Z,23
2022-08-30T06:52:11.458Z,23
2022-08-30T06:57:23.521Z,23
2022-08-30T07:02:35.940Z,23
2022-08-30T07:07:48.159Z,23
2022-08-30T07:13:00.368Z,23
2022-08-30T07:18:12.557Z,23
2022-08-30T07:23:24.960Z,23
2022-08-30T07:28:37.428Z,24
2022-08-30T07:33:49.578Z,23
2022-08-30T07:39:02.016Z,23
2022-08-30T07:44:14.533Z,24
2022-08-30T07:49:27.010Z,24
2022-08-30T07:54:39.303Z,24
2022-08-30T07:59:51.595Z,24
2022-08-30T08:05:04.179Z,24
2022-08-30T08:10:16.440Z,24
2022-08-30T08:15:28.835Z,24
2022-08-30T08:20:41.140Z,24
2022-08-30T08:25:53.503Z,25
2022-08-30T08:31:06.334Z,25
2022-08-30T08:36:18.747Z,25
2022-08-30T08:41:31.120Z,25
2022-08-30T08:46:46.100Z,25
2022-08-30T08:51:57.910Z,25
2022-08-30T08:57:18.490Z,26
2022-08-30T09:02:35.232Z,26
2022-08-30T09:07:47.688Z,26
2022-08-30T09:13:04.976Z,26
2022-08-30T09:18:22.426Z,26
2022-08-30T09:23:34.759Z,27
2022-08-30T09:28:49.946Z,27
2022-08-30T09:34:01.898Z,27
2022-08-30T09:39:14.270Z,27
2022-08-30T09:44:26.758Z,27
2022-08-30T09:49:39.519Z,27
2022-08-30T09:54:52.290Z,27
2022-08-30T10:00:04.777Z,28
2022-08-30T10:05:17.642Z,28
2022-08-30T10:10:32.159Z,28
2022-08-30T10:15:44.800Z,28
2022-08-30T10:20:57.873Z,29
2022-08-30T10:26:10.871Z,29
2022-08-30T10:31:24.379Z,29
2022-08-30T10:36:37.809Z,29
2022-08-30T10:41:50.797Z,29
2022-08-30T10:47:04.430Z,29
2022-08-30T10:52:19.962Z,30
2022-08-30T10:57:32.650Z,30
2022-08-30T11:02:45.700Z,30
2022-08-30T11:07:58.562Z,30
2022-08-30T11:18:23.919Z,30
2022-08-30T11:23:40.204Z,32
2022-08-30T11:28:54.267Z,34
2022-08-30T11:34:11.040Z,35
2022-08-30T11:39:27.061Z,36
2022-08-30T11:44:41.080Z,37
2022-08-30T11:49:53.389Z,36
2022-08-30T11:55:07.437Z,37
2022-08-30T12:15:52.892Z,36
2022-08-30T12:21:04.597Z,36
2022-08-30T12:36:40.164Z,34
2022-08-30T12:47:06.416Z,35
2022-08-30T12:52:19.607Z,36
2022-08-30T12:57:35.877Z,36
2022-08-30T13:13:08.677Z,35
2022-08-30T13:18:27.972Z,35
2022-08-30T13:28:51.816Z,33
2022-08-30T13:34:05.282Z,34
2022-08-30T13:39:22.349Z,34
2022-08-30T13:54:57.198Z,33
2022-08-30T14:10:32.759Z,31
2022-08-30T14:16:27.767Z,32
2022-08-30T14:21:36.797Z,32
2022-08-30T14:26:48.889Z,32
2022-08-30T14:32:01.612Z,32
2022-08-30T14:37:13.992Z,31
2022-08-30T14:52:47.397Z,31
2022-08-30T15:03:11.365Z,30
2022-08-30T15:08:26.189Z,31
2022-08-30T15:13:37.817Z,30
2022-08-30T15:18:50.229Z,30
2022-08-30T15:24:02.906Z,30
2022-08-30T15:29:15.178Z,30
2022-08-30T15:34:29.035Z,30
2022-08-30T15:39:41.709Z,30
2022-08-30T15:44:54.159Z,30
2022-08-30T15:55:17.112Z,30
2022-08-30T16:05:39.620Z,29
2022-08-30T16:10:52.429Z,29
2022-08-30T16:16:04.690Z,29
2022-08-30T16:21:21.184Z,29
2022-08-30T16:26:34.197Z,28
2022-08-30T16:31:48.059Z,28
2022-08-30T16:37:00.522Z,28
2022-08-30T16:42:12.859Z,28
2022-08-30T16:47:36.792Z,27
2022-08-30T16:52:49.176Z,27
2022-08-30T16:58:01.626Z,27
2022-08-30T17:03:14.207Z,27
2022-08-30T17:08:26.746Z,27
2022-08-30T17:13:39.099Z,27
2022-08-30T17:18:51.564Z,27
2022-08-30T17:24:04.004Z,27
2022-08-30T17:29:16.430Z,27
2022-08-30T17:34:28.860Z,27
2022-08-30T17:39:41.092Z,27
2022-08-30T17:44:54.055Z,27
2022-08-30T17:50:08.737Z,27
2022-08-30T17:55:20.437Z,26
2022-08-30T18:00:33.247Z,26
2022-08-30T18:05:47.886Z,26
2022-08-30T18:10:59.946Z,26
2022-08-30T18:16:13.413Z,26
2022-08-30T18:21:31.088Z,26
2022-08-30T18:26:43.748Z,26
2022-08-30T18:31:56.939Z,26
2022-08-30T18:37:13.123Z,26
2022-08-30T18:42:35.412Z,26
2022-08-30T18:47:46.919Z,26
2022-08-30T20:24:30.660Z,26
2022-08-30T20:29:40.483Z,24
2022-08-30T20:34:58.159Z,25
2022-08-30T20:40:18.380Z,25
2022-08-30T20:45:31.719Z,25
2022-08-30T20:50:49.033Z,25
2022-08-30T20:56:01.373Z,25
2022-08-30T21:01:16.024Z,25
2022-08-30T21:06:28.641Z,25
2022-08-30T21:11:45.289Z,25
2022-08-30T21:16:58.584Z,25
2022-08-30T21:22:11.198Z,25
2022-08-30T21:27:23.808Z,25
2022-08-30T21:32:36.590Z,25
2022-08-30T21:37:49.188Z,25
2022-08-30T21:43:06.483Z,25
2022-08-30T21:48:23.551Z,25
2022-08-30T21:53:35.867Z,24
2022-08-30T21:58:48.377Z,24
2022-08-30T22:04:01.187Z,24
2022-08-30T22:09:13.803Z,24
2022-08-30T22:14:27.547Z,24
2022-08-30T22:19:39.368Z,24
2022-08-30T22:24:51.788Z,24
2022-08-30T22:30:04.138Z,24
2022-08-30T22:35:16.555Z,24
2022-08-30T22:40:29.159Z,24
2022-08-30T22:45:41.691Z,24
2022-08-30T22:50:54.007Z,24
2022-08-30T22:56:06.397Z,24
2022-08-30T23:01:18.775Z,24
2022-08-30T23:06:31.108Z,24
2022-08-30T23:11:43.310Z,24
2022-08-30T23:16:55.801Z,24
2022-08-30T23:22:08.047Z,24
2022-08-30T23:27:20.179Z,24
2022-08-30T23:32:32.388Z,24
2022-08-30T23:37:44.647Z,24
2022-08-30T23:43:03.069Z,24
2022-08-30T23:48:15.397Z,24
2022-08-30T23:53:27.676Z,24
2022-08-30T23:58:39.738Z,24
